createdAt,value
2022-12-18T00:01:22.626Z,11.74
2022-12-18T00:03:50.167Z,11.46
2022-12-18T00:06:17.378Z,11.66
2022-12-18T00:08:45.596Z,11.58
2022-12-18T00:11:18.116Z,11.79
2022-12-18T00:13:45.617Z,11.79
2022-12-18T00:16:15.295Z,11.57
2022-12-18T00:18:43.245Z,11.42
2022-12-18T00:21:11.882Z,11.52
2022-12-18T00:23:39.805Z,11.35
2022-12-18T00:26:10.439Z,11.27
2022-12-18T00:28:37.514Z,11.21
2022-12-18T00:31:07.060Z,11.38
2022-12-18T00:33:34.370Z,11.35
2022-12-18T00:36:06.575Z,11.46
2022-12-18T00:38:33.755Z,11.47
2022-12-18T00:41:00.814Z,11.58
2022-12-18T00:43:27.995Z,11.54
2022-12-18T00:45:54.945Z,11.49
2022-12-18T00:48:21.772Z,11.40
2022-12-18T00:50:49.625Z,11.19
2022-12-18T00:53:16.847Z,11.16
2022-12-18T00:55:44.173Z,11.19
2022-12-18T00:58:12.297Z,11.17
2022-12-18T01:00:39.204Z,11.03
2022-12-18T01:03:06.481Z,11.11
2022-12-18T01:05:33.886Z,11.21
2022-12-18T01:08:00.660Z,11.20
2022-12-18T01:10:27.436Z,11.02
2022-12-18T01:12:54.130Z,11.13
2022-12-18T01:15:21.023Z,10.99
2022-12-18T01:17:47.632Z,10.98
2022-12-18T01:20:14.424Z,11.01
2022-12-18T01:22:41.140Z,10.97
2022-12-18T01:25:08.562Z,10.86
2022-12-18T01:27:35.687Z,11.04
2022-12-18T01:30:02.370Z,11.12
2022-12-18T01:32:31.781Z,11.20
2022-12-18T01:34:58.750Z,11.22
2022-12-18T01:37:25.721Z,11.34
2022-12-18T01:39:55.404Z,11.25
2022-12-18T01:42:22.703Z,11.21
2022-12-18T01:45:02.872Z,11.22
2022-12-18T01:47:38.439Z,11.34
2022-12-18T01:50:12.807Z,11.28
2022-12-18T01:52:42.213Z,11.32
2022-12-18T01:55:10.960Z,11.37
2022-12-18T01:57:39.130Z,11.36
2022-12-18T02:00:10.222Z,11.33
2022-12-18T02:02:37.228Z,11.33
2022-12-18T02:05:05.081Z,11.36
2022-12-18T02:07:43.541Z,11.23
2022-12-18T02:10:39.312Z,11.11
2022-12-18T02:13:25.089Z,11.11
2022-12-18T02:16:16.377Z,11.05
2022-12-18T02:18:49.611Z,11.16
2022-12-18T02:21:55.227Z,11.04
2022-12-18T02:24:43.272Z,10.90
2022-12-18T02:27:12.306Z,10.90
2022-12-18T02:29:41.622Z,10.95
2022-12-18T02:32:15.033Z,11.00
2022-12-18T02:34:42.202Z,10.92
2022-12-18T02:37:13.930Z,10.91
2022-12-18T02:39:44.880Z,10.92
2022-12-18T02:42:12.489Z,10.85
2022-12-18T02:44:47.817Z,10.90
2022-12-18T02:47:17.803Z,10.91
2022-12-18T02:49:47.327Z,10.81
2022-12-18T02:52:31.968Z,10.71
2022-12-18T02:55:31.770Z,10.76
2022-12-18T02:58:21.977Z,10.82
2022-12-18T03:01:07.286Z,10.77
2022-12-18T03:03:37.165Z,10.81
2022-12-18T03:06:22.282Z,10.80
2022-12-18T03:08:55.200Z,10.65
2022-12-18T03:11:41.921Z,10.53
2022-12-18T03:14:09.470Z,10.48
2022-12-18T03:16:38.324Z,10.52
2022-12-18T03:19:10.526Z,10.43
2022-12-18T03:21:46.598Z,10.46
2022-12-18T03:24:13.375Z,10.53
2022-12-18T03:26:44.474Z,10.62
2022-12-18T03:29:17.844Z,10.72
2022-12-18T03:31:50.610Z,10.81
2022-12-18T03:34:34.919Z,10.86
2022-12-18T03:37:02.786Z,10.89
2022-12-18T03:39:29.534Z,11.01
2022-12-18T03:42:23.923Z,11.11
2022-12-18T03:45:09.182Z,11.11
2022-12-18T03:48:08.472Z,10.97
2022-12-18T03:50:53.958Z,10.84
2022-12-18T03:53:26.441Z,10.98
2022-12-18T03:55:54.076Z,10.78
2022-12-18T03:58:26.142Z,10.77
2022-12-18T04:00:56.917Z,10.96
2022-12-18T04:03:26.623Z,10.99
2022-12-18T04:05:56.470Z,11.15
2022-12-18T04:08:24.702Z,11.10
2022-12-18T04:10:51.408Z,11.27
2022-12-18T04:13:26.136Z,11.08
2022-12-18T04:15:53.071Z,11.24
2022-12-18T04:18:19.884Z,11.31
2022-12-18T04:20:46.651Z,11.17
2022-12-18T04:23:13.395Z,10.90
2022-12-18T04:25:40.366Z,10.92
2022-12-18T04:28:07.387Z,10.92
2022-12-18T04:30:34.131Z,10.85
2022-12-18T04:33:00.817Z,10.94
2022-12-18T04:35:27.507Z,10.94
2022-12-18T04:37:54.185Z,10.93
2022-12-18T04:40:20.823Z,10.83
2022-12-18T04:42:47.566Z,10.85
2022-12-18T04:45:14.300Z,10.65
2022-12-18T04:47:40.959Z,10.61
2022-12-18T04:50:08.119Z,10.63
2022-12-18T04:52:34.792Z,10.50
2022-12-18T04:55:01.441Z,10.63
2022-12-18T04:57:28.266Z,10.75
2022-12-18T04:59:55.076Z,10.80
2022-12-18T05:02:21.940Z,10.85
2022-12-18T05:04:48.673Z,10.94
2022-12-18T05:07:15.441Z,10.97
2022-12-18T05:09:42.064Z,10.98
2022-12-18T05:12:08.766Z,10.99
2022-12-18T05:14:35.377Z,11.06
2022-12-18T05:17:02.061Z,10.99
2022-12-18T05:19:28.738Z,11.12
2022-12-18T05:21:55.380Z,11.21
2022-12-18T05:24:22.422Z,11.13
2022-12-18T05:26:49.070Z,10.99
2022-12-18T05:29:15.877Z,10.99
2022-12-18T05:31:43.107Z,11.07
2022-12-18T05:34:10.301Z,10.93
2022-12-18T05:36:38.147Z,10.80
2022-12-18T05:39:04.927Z,10.99
2022-12-18T05:41:32.776Z,11.01
2022-12-18T05:44:00.403Z,11.02
2022-12-18T05:46:27.441Z,11.04
2022-12-18T05:48:54.170Z,11.05
2022-12-18T05:51:22.509Z,10.98
2022-12-18T05:53:49.322Z,11.14
2022-12-18T05:56:18.993Z,10.86
2022-12-18T05:58:45.837Z,10.94
2022-12-18T06:01:16.935Z,11.19
2022-12-18T06:03:44.024Z,11.28
2022-12-18T06:06:29.835Z,11.34
2022-12-18T06:08:57.675Z,11.22
2022-12-18T06:11:26.417Z,11.42
2022-12-18T06:13:58.881Z,11.55
2022-12-18T06:16:27.378Z,11.58
2022-12-18T06:18:54.366Z,11.67
2022-12-18T06:21:21.014Z,11.59
2022-12-18T06:23:47.854Z,11.43
2022-12-18T06:26:15.242Z,11.35
2022-12-18T06:28:42.547Z,11.48
2022-12-18T06:31:09.897Z,11.33
2022-12-18T06:33:37.523Z,11.38
2022-12-18T06:36:09.686Z,11.34
2022-12-18T06:38:39.006Z,11.28
2022-12-18T06:41:10.271Z,11.29
2022-12-18T06:43:37.828Z,11.32
2022-12-18T06:46:05.452Z,11.32
2022-12-18T06:48:32.741Z,11.23
2022-12-18T06:51:00.098Z,11.35
2022-12-18T06:53:26.776Z,11.43
2022-12-18T06:55:53.520Z,11.38
2022-12-18T06:58:20.160Z,11.28
2022-12-18T07:00:46.912Z,11.41
2022-12-18T07:03:14.170Z,11.36
2022-12-18T07:05:42.051Z,11.40
2022-12-18T07:08:08.774Z,11.10
2022-12-18T07:10:47.529Z,11.12
2022-12-18T07:13:16.767Z,11.04
2022-12-18T07:15:44.283Z,11.04
2022-12-18T07:18:12.046Z,10.89
2022-12-18T07:20:38.977Z,10.99
2022-12-18T07:23:06.321Z,10.88
2022-12-18T07:25:36.919Z,10.75
2022-12-18T07:28:03.941Z,10.79
2022-12-18T07:30:30.649Z,10.72
2022-12-18T07:32:57.348Z,10.70
2022-12-18T07:35:25.307Z,10.68
2022-12-18T07:37:52.496Z,10.68
2022-12-18T07:40:19.410Z,10.57
2022-12-18T07:42:46.042Z,10.64
2022-12-18T07:45:12.736Z,10.63
2022-12-18T07:47:39.515Z,10.53
2022-12-18T07:50:06.847Z,10.74
2022-12-18T07:52:33.600Z,10.70
2022-12-18T07:55:00.776Z,10.75
2022-12-18T07:57:49.431Z,10.66
2022-12-18T08:00:14.787Z,10.56
2022-12-18T08:02:42.297Z,10.54
2022-12-18T08:05:09.662Z,10.61
2022-12-18T08:07:36.322Z,10.71
2022-12-18T08:10:03.286Z,10.65
2022-12-18T08:12:30.754Z,10.66
2022-12-18T08:14:57.356Z,10.76
2022-12-18T08:17:24.059Z,10.75
2022-12-18T08:19:50.806Z,10.78
2022-12-18T08:22:17.549Z,10.67
2022-12-18T08:24:44.238Z,10.72
2022-12-18T08:27:28.836Z,10.81
2022-12-18T08:29:56.631Z,10.67
2022-12-18T08:32:23.697Z,10.74
2022-12-18T08:34:50.362Z,10.81
2022-12-18T08:37:16.996Z,10.74
2022-12-18T08:39:43.722Z,10.78
2022-12-18T08:42:29.444Z,10.68
2022-12-18T08:44:56.124Z,10.74
2022-12-18T08:47:22.794Z,10.73
2022-12-18T08:49:49.500Z,10.67
2022-12-18T08:52:16.182Z,10.61
2022-12-18T08:54:42.814Z,10.75
2022-12-18T08:57:09.534Z,10.66
2022-12-18T08:59:36.299Z,10.53
2022-12-18T09:02:03.158Z,10.59
2022-12-18T09:04:30.029Z,10.66
2022-12-18T09:06:56.800Z,10.67
2022-12-18T09:09:23.426Z,10.49
2022-12-18T09:11:50.042Z,10.57
2022-12-18T09:14:16.739Z,10.56
2022-12-18T09:16:43.848Z,10.46
2022-12-18T09:19:14.169Z,10.57
2022-12-18T09:21:44.817Z,10.50
2022-12-18T09:24:15.580Z,10.39
2022-12-18T09:26:43.677Z,10.29
2022-12-18T09:29:14.454Z,10.40
2022-12-18T09:31:41.553Z,10.43
2022-12-18T09:34:08.505Z,10.26
2022-12-18T09:36:35.528Z,10.24
2022-12-18T09:39:06.419Z,10.28
2022-12-18T09:41:41.990Z,10.24
2022-12-18T09:44:11.519Z,10.32
2022-12-18T09:46:44.954Z,10.20
2022-12-18T09:49:17.164Z,10.15
2022-12-18T09:51:51.480Z,10.17
2022-12-18T09:54:23.836Z,10.02
2022-12-18T09:56:50.641Z,9.91
2022-12-18T09:59:25.743Z,9.94
2022-12-18T10:01:52.922Z,9.92
2022-12-18T10:04:20.211Z,9.81
2022-12-18T10:07:15.403Z,9.89
2022-12-18T10:09:52.745Z,9.84
2022-12-18T10:12:25.308Z,9.80
2022-12-18T10:15:28.033Z,9.58
2022-12-18T10:18:07.659Z,9.64
2022-12-18T10:20:42.427Z,9.55
2022-12-18T10:23:21.037Z,9.57
2022-12-18T10:26:05.395Z,9.59
2022-12-18T10:28:35.998Z,9.57
2022-12-18T10:31:03.549Z,9.58
2022-12-18T10:33:32.965Z,9.42
2022-12-18T10:36:01.211Z,9.47
2022-12-18T10:38:32.985Z,9.32
2022-12-18T10:41:06.311Z,9.27
2022-12-18T10:43:42.634Z,9.30
2022-12-18T10:46:09.374Z,9.18
2022-12-18T10:48:48.272Z,9.13
2022-12-18T10:51:38.409Z,9.23
2022-12-18T10:54:08.191Z,9.13
2022-12-18T10:56:36.973Z,8.98
2022-12-18T10:59:15.927Z,9.00
2022-12-18T11:01:53.262Z,9.00
2022-12-18T11:04:23.017Z,9.05
2022-12-18T11:07:09.916Z,9.21
2022-12-18T11:09:38.457Z,9.06
2022-12-18T11:12:16.494Z,9.14
2022-12-18T11:14:52.010Z,9.06
2022-12-18T11:17:36.580Z,8.99
2022-12-18T11:20:20.757Z,8.93
2022-12-18T11:22:57.596Z,8.87
2022-12-18T11:25:33.134Z,8.78
2022-12-18T11:28:03.356Z,8.61
2022-12-18T11:30:35.481Z,8.64
2022-12-18T11:33:12.400Z,8.55
2022-12-18T11:35:52.791Z,8.70
2022-12-18T11:38:30.812Z,8.65
2022-12-18T11:41:05.715Z,8.71
2022-12-18T11:44:16.828Z,8.66
2022-12-18T11:46:50.614Z,8.41
2022-12-18T11:49:35.152Z,8.41
2022-12-18T11:52:11.143Z,8.23
2022-12-18T11:54:37.870Z,8.18
2022-12-18T11:57:22.868Z,8.28
2022-12-18T12:00:22.994Z,8.08
2022-12-18T12:03:22.376Z,8.02
2022-12-18T12:05:57.585Z,7.96
2022-12-18T12:08:30.558Z,7.99
2022-12-18T12:11:15.902Z,7.86
2022-12-18T12:13:43.098Z,7.89
2022-12-18T12:16:38.148Z,7.64
2022-12-18T12:19:37.591Z,7.59
2022-12-18T12:22:20.689Z,7.46
2022-12-18T12:24:59.562Z,7.40
2022-12-18T12:27:33.340Z,7.49
2022-12-18T12:30:18.167Z,7.46
2022-12-18T12:33:05.731Z,7.48
2022-12-18T12:35:47.994Z,7.35
2022-12-18T12:38:20.890Z,7.17
2022-12-18T12:41:02.221Z,7.20
2022-12-18T12:43:50.534Z,7.12
2022-12-18T12:46:36.675Z,7.05
2022-12-18T12:49:07.220Z,7.03
2022-12-18T12:51:37.906Z,7.05
2022-12-18T12:54:10.181Z,7.01
2022-12-18T12:56:45.999Z,6.96
2022-12-18T12:59:34.050Z,6.96
2022-12-18T13:02:24.273Z,6.94
2022-12-18T13:05:18.980Z,6.95
2022-12-18T13:07:58.490Z,6.87
2022-12-18T13:10:33.206Z,6.89
2022-12-18T13:13:20.434Z,6.86
2022-12-18T13:16:06.172Z,6.80
2022-12-18T13:18:34.761Z,6.69
2022-12-18T13:21:03.192Z,6.62
2022-12-18T13:23:34.001Z,6.56
2022-12-18T13:26:10.920Z,6.63
2022-12-18T13:28:47.052Z,6.64
2022-12-18T13:31:42.072Z,6.61
2022-12-18T13:34:28.446Z,6.45
2022-12-18T13:37:17.783Z,6.37
2022-12-18T13:39:44.714Z,6.29
2022-12-18T13:42:31.439Z,6.32
2022-12-18T13:44:59.029Z,6.36
2022-12-18T13:47:38.696Z,6.21
2022-12-18T13:50:27.710Z,6.39
2022-12-18T13:52:59.176Z,6.33
2022-12-18T13:55:26.285Z,6.36
2022-12-18T13:58:05.695Z,6.32
2022-12-18T14:00:32.765Z,6.32
2022-12-18T14:03:00.021Z,6.32
2022-12-18T14:05:32.987Z,6.32
2022-12-18T14:08:07.370Z,6.28
2022-12-18T14:10:48.568Z,6.34
2022-12-18T14:13:25.543Z,6.31
2022-12-18T14:15:52.862Z,6.22
2022-12-18T14:18:27.484Z,6.30
2022-12-18T14:20:59.522Z,6.27
2022-12-18T14:23:36.355Z,6.28
2022-12-18T14:26:20.094Z,6.21
2022-12-18T14:28:47.044Z,6.21
2022-12-18T14:31:26.041Z,6.06
2022-12-18T14:33:54.379Z,6.32
2022-12-18T14:36:30.724Z,6.26
2022-12-18T14:38:59.695Z,6.30
2022-12-18T14:41:27.539Z,6.33
2022-12-18T14:43:55.909Z,6.34
2022-12-18T14:46:38.262Z,6.38
2022-12-18T14:49:20.077Z,6.35
2022-12-18T14:51:53.121Z,6.46
2022-12-18T14:54:21.997Z,6.41
2022-12-18T14:56:51.982Z,6.46
2022-12-18T14:59:24.743Z,6.40
2022-12-18T15:02:06.044Z,6.43
2022-12-18T15:04:40.344Z,6.43
2022-12-18T15:07:18.296Z,6.29
2022-12-18T15:10:02.585Z,6.34
2022-12-18T15:12:48.241Z,6.27
2022-12-18T15:15:45.883Z,6.29
2022-12-18T15:18:18.942Z,6.22
2022-12-18T15:20:54.558Z,6.30
2022-12-18T15:23:24.303Z,6.29
2022-12-18T15:26:10.061Z,6.29
2022-12-18T15:28:36.824Z,6.27
2022-12-18T15:31:10.931Z,6.20
2022-12-18T15:34:00.331Z,6.20
2022-12-18T15:36:27.232Z,6.21
2022-12-18T15:39:04.594Z,6.19
2022-12-18T15:41:37.591Z,6.13
2022-12-18T15:44:23.797Z,6.13
2022-12-18T15:46:50.504Z,6.02
2022-12-18T15:49:17.267Z,6.01
2022-12-18T15:51:44.079Z,5.97
2022-12-18T15:54:16.719Z,5.98
2022-12-18T15:57:02.296Z,5.94
2022-12-18T15:59:29.581Z,5.95
2022-12-18T16:01:57.681Z,5.97
2022-12-18T16:04:25.710Z,5.98
2022-12-18T16:07:14.298Z,6.02
2022-12-18T16:09:42.011Z,6.03
2022-12-18T16:12:29.085Z,6.04
2022-12-18T16:14:55.738Z,6.11
2022-12-18T16:17:22.556Z,6.05
2022-12-18T16:19:49.291Z,6.00
2022-12-18T16:22:22.193Z,5.99
2022-12-18T16:24:49.847Z,5.99
2022-12-18T16:27:16.469Z,5.98
2022-12-18T16:29:43.704Z,6.06
2022-12-18T16:32:15.220Z,5.98
2022-12-18T16:34:43.248Z,5.98
2022-12-18T16:37:11.523Z,5.86
2022-12-18T16:39:39.383Z,5.81
2022-12-18T16:42:20.104Z,5.82
2022-12-18T16:44:49.089Z,5.75
2022-12-18T16:47:16.287Z,5.61
2022-12-18T16:49:45.953Z,5.70
2022-12-18T16:52:13.360Z,5.70
2022-12-18T16:54:40.048Z,5.81
2022-12-18T16:57:06.830Z,5.81
2022-12-18T16:59:33.987Z,5.81
2022-12-18T17:02:01.016Z,5.83
2022-12-18T17:04:27.830Z,5.89
2022-12-18T17:06:54.541Z,5.83
2022-12-18T17:09:27.823Z,5.95
2022-12-18T17:11:54.891Z,5.93
2022-12-18T17:14:24.907Z,5.98
2022-12-18T17:17:19.338Z,5.97
2022-12-18T17:19:40.060Z,5.97
2022-12-18T17:22:08.229Z,5.99
2022-12-18T17:24:35.662Z,5.95
2022-12-18T17:27:03.738Z,6.00
2022-12-18T17:29:31.026Z,5.96
2022-12-18T17:31:57.742Z,6.00
2022-12-18T17:34:27.260Z,5.92
2022-12-18T17:36:53.904Z,5.88
2022-12-18T17:39:21.182Z,5.95
2022-12-18T17:41:48.893Z,5.97
2022-12-18T17:44:16.680Z,5.95
2022-12-18T17:46:43.831Z,5.86
2022-12-18T17:49:11.165Z,5.84
2022-12-18T17:51:38.078Z,5.91
2022-12-18T17:54:05.469Z,5.94
2022-12-18T17:56:33.015Z,5.83
2022-12-18T17:59:00.264Z,5.85
2022-12-18T18:01:27.603Z,5.71
2022-12-18T18:03:57.859Z,5.57
2022-12-18T18:06:24.620Z,5.63
2022-12-18T18:08:52.092Z,5.54
2022-12-18T18:11:39.456Z,5.60
2022-12-18T18:14:12.410Z,5.55
2022-12-18T18:16:41.789Z,5.42
2022-12-18T18:19:12.645Z,5.57
2022-12-18T18:21:41.833Z,5.55
2022-12-18T18:24:10.838Z,5.55
2022-12-18T18:26:38.060Z,5.49
2022-12-18T18:29:06.790Z,5.40
2022-12-18T18:31:40.974Z,5.67
2022-12-18T18:34:09.087Z,5.62
2022-12-18T18:36:35.744Z,5.65
2022-12-18T18:39:02.579Z,5.71
2022-12-18T18:41:30.665Z,5.69
2022-12-18T18:43:58.816Z,5.64
2022-12-18T18:46:26.051Z,5.68
2022-12-18T18:48:52.842Z,5.59
2022-12-18T18:51:21.358Z,5.47
2022-12-18T18:53:50.446Z,5.55
2022-12-18T18:59:07.910Z,5.60
2022-12-18T19:01:34.881Z,5.63
2022-12-18T19:04:01.735Z,5.60
2022-12-18T19:06:29.113Z,5.50
2022-12-18T19:08:57.299Z,5.58
2022-12-18T19:11:43.870Z,5.50
2022-12-18T19:14:13.605Z,5.53
2022-12-18T19:16:41.598Z,5.51
2022-12-18T19:19:08.868Z,5.45
2022-12-18T19:21:35.952Z,5.50
2022-12-18T19:24:02.945Z,5.52
2022-12-18T19:26:30.282Z,5.51
2022-12-18T19:29:05.361Z,5.61
2022-12-18T19:31:36.074Z,5.51
2022-12-18T19:34:05.093Z,5.53
2022-12-18T19:36:33.339Z,5.52
2022-12-18T19:39:01.895Z,5.53
2022-12-18T19:41:31.105Z,5.47
2022-12-18T19:43:58.687Z,5.55
2022-12-18T19:46:25.581Z,5.49
2022-12-18T19:48:52.701Z,5.36
2022-12-18T19:51:27.300Z,5.45
2022-12-18T19:53:58.789Z,5.49
2022-12-18T19:56:29.236Z,5.49
2022-12-18T19:58:56.368Z,5.46
2022-12-18T20:01:25.172Z,5.51
2022-12-18T20:03:53.673Z,5.49
2022-12-18T20:06:33.207Z,5.54
2022-12-18T20:09:04.364Z,5.46
2022-12-18T20:11:32.913Z,5.41
2022-12-18T20:14:02.464Z,5.43
2022-12-18T20:16:29.315Z,5.44
2022-12-18T20:18:57.190Z,5.49
2022-12-18T20:21:25.453Z,5.50
2022-12-18T20:23:52.658Z,5.40
2022-12-18T20:26:19.472Z,5.42
2022-12-18T20:28:46.377Z,5.41
2022-12-18T20:31:14.122Z,5.33
2022-12-18T20:33:42.515Z,5.25
2022-12-18T20:36:15.244Z,5.34
2022-12-18T20:38:43.646Z,5.35
2022-12-18T20:41:16.476Z,5.26
2022-12-18T20:43:44.304Z,5.18
2022-12-18T20:46:13.964Z,5.20
2022-12-18T20:48:42.600Z,5.27
2022-12-18T20:51:12.342Z,5.22
2022-12-18T20:53:40.722Z,5.29
2022-12-18T20:56:17.773Z,5.21
2022-12-18T20:58:49.336Z,5.21
2022-12-18T21:01:18.813Z,5.22
2022-12-18T21:03:46.687Z,5.27
2022-12-18T21:06:15.488Z,5.15
2022-12-18T21:08:43.067Z,5.13
2022-12-18T21:11:40.206Z,5.15
2022-12-18T21:14:21.128Z,5.16
2022-12-18T21:16:48.674Z,5.05
2022-12-18T21:19:18.881Z,5.04
2022-12-18T21:21:46.403Z,4.91
2022-12-18T21:24:13.516Z,4.94
2022-12-18T21:26:45.503Z,5.03
2022-12-18T21:29:16.487Z,4.96
2022-12-18T21:31:44.746Z,4.94
2022-12-18T21:34:19.539Z,5.01
2022-12-18T21:36:47.094Z,5.01
2022-12-18T21:39:14.829Z,5.12
2022-12-18T21:42:00.182Z,5.07
2022-12-18T21:44:27.407Z,5.07
2022-12-18T21:46:58.946Z,5.10
2022-12-18T21:49:28.335Z,5.03
2022-12-18T21:51:59.017Z,5.10
2022-12-18T21:54:28.185Z,5.08
2022-12-18T21:56:55.695Z,5.11
2022-12-18T21:59:26.654Z,5.21
2022-12-18T22:01:54.681Z,5.13
2022-12-18T22:04:22.052Z,5.05
2022-12-18T22:06:49.031Z,5.04
2022-12-18T22:09:19.071Z,5.10
2022-12-18T22:11:46.431Z,5.14
2022-12-18T22:14:14.806Z,4.95
2022-12-18T22:16:42.856Z,5.05
2022-12-18T22:19:11.604Z,5.03
2022-12-18T22:21:41.137Z,4.98
2022-12-18T22:24:12.448Z,4.99
2022-12-18T22:26:40.269Z,4.96
2022-12-18T22:29:31.811Z,4.93
2022-12-18T22:32:00.435Z,4.89
2022-12-18T22:34:27.827Z,4.88
2022-12-18T22:36:54.644Z,4.94
2022-12-18T22:39:23.971Z,4.28
2022-12-18T22:41:51.809Z,4.84
2022-12-18T22:44:18.795Z,4.92
2022-12-18T22:47:00.619Z,4.82
2022-12-18T22:49:34.755Z,4.76
2022-12-18T22:52:02.720Z,4.79
2022-12-18T22:54:29.357Z,4.74
2022-12-18T22:56:56.038Z,4.79
2022-12-18T22:59:23.585Z,4.78
2022-12-18T23:01:57.087Z,4.76
2022-12-18T23:04:36.086Z,4.73
2022-12-18T23:07:04.918Z,4.72
2022-12-18T23:09:32.193Z,4.76
2022-12-18T23:11:59.140Z,4.71
2022-12-18T23:14:25.834Z,4.72
2022-12-18T23:16:53.189Z,4.72
2022-12-18T23:19:20.839Z,4.75
2022-12-18T23:21:48.160Z,4.70
2022-12-18T23:24:15.758Z,4.71
2022-12-18T23:26:43.026Z,4.69
2022-12-18T23:29:09.798Z,4.68
2022-12-18T23:31:38.767Z,4.65
2022-12-18T23:34:06.518Z,4.74
2022-12-18T23:36:35.877Z,4.69
2022-12-18T23:39:15.390Z,4.76
2022-12-18T23:41:56.468Z,4.30
2022-12-18T23:44:23.304Z,4.63
2022-12-18T23:46:49.972Z,4.67
2022-12-18T23:49:16.687Z,4.74
2022-12-18T23:51:43.538Z,4.71
2022-12-18T23:54:10.403Z,4.60
2022-12-18T23:56:37.145Z,4.63
2022-12-18T23:59:03.910Z,4.71
